createdAt,value
2019-05-09T00:01:33.573Z,26.70
2019-05-09T00:04:04.875Z,26.70
2019-05-09T00:06:34.903Z,26.70
2019-05-09T00:09:06.994Z,26.70
2019-05-09T00:11:37.462Z,26.70
2019-05-09T00:14:07.726Z,26.80
2019-05-09T00:16:38.359Z,26.80
2019-05-09T00:19:08.555Z,26.90
2019-05-09T00:21:40.150Z,26.90
2019-05-09T00:24:10.411Z,27.00
2019-05-09T00:26:40.651Z,27.00
2019-05-09T00:29:13.935Z,27.10
2019-05-09T00:31:45.181Z,27.10
2019-05-09T00:34:16.756Z,27.20
2019-05-09T00:36:46.971Z,27.20
2019-05-09T00:39:17.433Z,27.30
2019-05-09T00:41:47.906Z,27.40
2019-05-09T00:44:19.529Z,27.50
2019-05-09T00:46:53.392Z,27.50
2019-05-09T00:49:24.164Z,27.60
2019-05-09T00:51:54.370Z,27.60
2019-05-09T00:54:24.813Z,27.70
2019-05-09T00:56:55.223Z,27.70
2019-05-09T00:59:25.366Z,27.80
2019-05-09T01:01:55.963Z,27.80
2019-05-09T01:04:26.230Z,27.90
2019-05-09T01:06:56.378Z,28.00
2019-05-09T01:09:26.976Z,28.00
2019-05-09T01:11:57.774Z,28.10
2019-05-09T01:14:27.903Z,28.20
2019-05-09T01:16:58.150Z,28.30
2019-05-09T01:19:28.493Z,28.30
2019-05-09T01:21:58.657Z,28.40
2019-05-09T01:24:29.916Z,28.40
2019-05-09T01:27:00.181Z,28.50
2019-05-09T01:29:30.262Z,28.60
2019-05-09T01:32:03.423Z,28.60
2019-05-09T01:34:34.922Z,28.70
2019-05-09T01:37:05.876Z,28.80
2019-05-09T01:39:37.176Z,28.80
2019-05-09T01:42:07.688Z,28.80
2019-05-09T01:44:37.937Z,28.90
2019-05-09T01:47:08.309Z,28.90
2019-05-09T01:49:38.797Z,29.00
2019-05-09T01:52:09.006Z,29.00
2019-05-09T01:54:40.949Z,29.10
2019-05-09T01:57:13.658Z,29.00
2019-05-09T01:59:44.342Z,29.10
2019-05-09T02:02:14.960Z,29.10
2019-05-09T02:04:45.487Z,29.10
2019-05-09T02:07:15.797Z,29.20
2019-05-09T02:09:46.899Z,29.20
2019-05-09T02:12:17.317Z,29.20
2019-05-09T02:14:49.174Z,29.20
2019-05-09T02:17:20.609Z,29.20
2019-05-09T02:19:52.810Z,29.20
2019-05-09T02:22:24.041Z,29.30
2019-05-09T02:24:54.301Z,29.40
2019-05-09T02:27:24.631Z,29.40
2019-05-09T02:29:54.891Z,29.50
2019-05-09T02:32:59.829Z,29.50
2019-05-09T02:35:36.259Z,29.60
2019-05-09T02:38:01.914Z,29.60
2019-05-09T02:40:32.343Z,29.60
2019-05-09T02:43:02.579Z,29.60
2019-05-09T02:45:34.186Z,29.70
2019-05-09T02:48:04.658Z,29.70
2019-05-09T02:50:34.875Z,29.70
2019-05-09T02:53:08.001Z,29.70
2019-05-09T02:55:38.688Z,29.80
2019-05-09T02:58:09.899Z,29.80
2019-05-09T03:00:41.647Z,29.80
2019-05-09T03:03:13.389Z,29.90
2019-05-09T03:05:45.057Z,29.90
2019-05-09T03:08:18.967Z,29.90
2019-05-09T03:10:49.034Z,30.00
2019-05-09T03:13:19.416Z,30.00
2019-05-09T03:15:51.186Z,30.10
2019-05-09T03:18:21.537Z,30.10
2019-05-09T03:20:53.149Z,30.10
2019-05-09T03:23:23.598Z,30.10
2019-05-09T03:25:53.820Z,30.10
2019-05-09T03:28:28.209Z,30.10
2019-05-09T03:30:59.379Z,30.10
2019-05-09T03:33:35.294Z,30.20
2019-05-09T03:36:02.305Z,30.20
2019-05-09T03:38:32.691Z,30.30
2019-05-09T03:41:02.932Z,30.30
2019-05-09T03:43:33.474Z,30.40
2019-05-09T03:46:04.878Z,30.40
2019-05-09T03:48:37.431Z,30.40
2019-05-09T03:51:08.222Z,30.40
2019-05-09T03:53:38.573Z,30.50
2019-05-09T03:58:01.188Z,30.50
2019-05-09T04:00:31.580Z,30.60
2019-05-09T04:03:01.926Z,30.60
2019-05-09T04:05:32.122Z,30.60
2019-05-09T04:08:03.604Z,30.70
2019-05-09T04:10:33.921Z,30.80
2019-05-09T04:13:04.334Z,30.80
2019-05-09T04:15:34.558Z,30.80
2019-05-09T04:18:04.936Z,30.90
2019-05-09T04:20:35.201Z,31.00
2019-05-09T04:23:07.830Z,31.10
2019-05-09T04:25:38.521Z,31.30
2019-05-09T04:28:08.942Z,31.40
2019-05-09T04:30:39.152Z,31.50
2019-05-09T04:33:09.345Z,31.60
2019-05-09T04:35:39.803Z,31.70
2019-05-09T04:38:10.013Z,31.70
2019-05-09T04:40:45.039Z,31.70
2019-05-09T04:43:18.301Z,31.70
2019-05-09T04:45:44.958Z,31.80
2019-05-09T04:48:20.376Z,31.80
2019-05-09T04:50:48.456Z,31.90
2019-05-09T04:53:18.709Z,31.90
2019-05-09T04:55:49.027Z,32.00
2019-05-09T04:58:19.413Z,32.00
2019-05-09T05:00:50.944Z,31.90
2019-05-09T05:03:21.267Z,31.90
2019-05-09T05:05:51.581Z,31.90
2019-05-09T05:08:21.954Z,31.90
2019-05-09T05:10:52.095Z,32.00
2019-05-09T05:13:26.279Z,32.00
2019-05-09T05:15:54.036Z,32.10
2019-05-09T05:18:24.292Z,32.10
2019-05-09T05:20:57.437Z,32.20
2019-05-09T05:23:28.033Z,32.20
2019-05-09T05:25:58.272Z,32.30
2019-05-09T05:28:28.668Z,32.40
2019-05-09T05:30:58.856Z,32.40
2019-05-09T05:33:30.348Z,32.40
2019-05-09T05:36:02.149Z,32.40
2019-05-09T05:38:32.593Z,32.50
2019-05-09T05:41:03.118Z,32.60
2019-05-09T05:43:43.325Z,32.70
2019-05-09T05:46:07.655Z,32.70
2019-05-09T05:48:39.710Z,32.70
2019-05-09T05:51:10.127Z,32.80
2019-05-09T05:53:40.585Z,32.80
2019-05-09T05:56:10.919Z,32.80
2019-05-09T05:58:41.411Z,32.90
2019-05-09T06:01:11.750Z,32.80
2019-05-09T06:03:42.233Z,32.80
2019-05-09T06:06:12.623Z,32.80
2019-05-09T06:08:42.867Z,32.90
2019-05-09T06:11:13.325Z,33.00
2019-05-09T06:13:56.185Z,33.10
2019-05-09T06:16:17.694Z,33.00
2019-05-09T06:18:47.532Z,33.00
2019-05-09T06:21:18.256Z,33.00
2019-05-09T06:23:48.658Z,33.10
2019-05-09T06:26:19.911Z,33.20
2019-05-09T06:28:51.088Z,33.20
2019-05-09T06:31:21.429Z,33.20
2019-05-09T06:33:53.528Z,33.20
2019-05-09T06:36:24.882Z,33.30
2019-05-09T06:38:55.148Z,33.40
2019-05-09T06:41:25.461Z,33.50
2019-05-09T06:44:11.011Z,33.50
2019-05-09T06:46:30.148Z,33.60
2019-05-09T06:49:20.448Z,33.60
2019-05-09T06:51:33.265Z,33.60
2019-05-09T06:54:03.427Z,33.60
2019-05-09T06:56:33.966Z,33.70
2019-05-09T06:59:04.652Z,33.70
2019-05-09T07:01:37.550Z,33.80
2019-05-09T07:04:09.632Z,33.80
2019-05-09T07:06:41.248Z,33.80
2019-05-09T07:09:12.818Z,33.70
2019-05-09T07:11:43.167Z,33.70
2019-05-09T07:14:28.322Z,33.60
2019-05-09T07:16:47.848Z,33.60
2019-05-09T07:19:18.465Z,33.60
2019-05-09T07:21:50.078Z,33.70
2019-05-09T07:24:20.875Z,33.70
2019-05-09T07:26:50.923Z,33.80
2019-05-09T07:29:21.198Z,33.90
2019-05-09T07:31:52.753Z,34.00
2019-05-09T07:34:24.325Z,34.10
2019-05-09T07:36:54.956Z,34.20
2019-05-09T07:39:25.103Z,34.20
2019-05-09T07:41:57.724Z,34.10
2019-05-09T07:44:37.790Z,34.10
2019-05-09T07:47:00.583Z,34.00
2019-05-09T07:49:31.368Z,34.00
2019-05-09T07:52:06.880Z,33.90
2019-05-09T07:54:33.477Z,33.80
2019-05-09T07:57:04.192Z,33.80
2019-05-09T07:59:34.631Z,33.80
2019-05-09T08:02:04.833Z,33.80
2019-05-09T08:04:38.260Z,33.80
2019-05-09T08:07:08.387Z,33.90
2019-05-09T08:09:39.070Z,33.90
2019-05-09T08:12:09.376Z,34.00
2019-05-09T08:14:39.804Z,34.10
2019-05-09T08:17:09.960Z,34.00
2019-05-09T08:19:40.227Z,34.00
2019-05-09T08:22:10.964Z,34.00
2019-05-09T08:24:41.508Z,33.90
2019-05-09T08:27:11.563Z,33.90
2019-05-09T08:29:41.747Z,33.80
2019-05-09T08:32:11.970Z,33.70
2019-05-09T08:34:42.500Z,33.60
2019-05-09T08:37:12.771Z,33.50
2019-05-09T08:39:43.109Z,33.40
2019-05-09T08:42:13.510Z,33.30
2019-05-09T08:44:43.877Z,33.20
2019-05-09T08:47:14.203Z,33.20
2019-05-09T08:49:47.361Z,33.20
2019-05-09T08:52:19.800Z,33.20
2019-05-09T08:54:50.375Z,33.20
2019-05-09T08:57:20.817Z,33.20
2019-05-09T08:59:51.652Z,33.20
2019-05-09T09:02:22.614Z,33.10
2019-05-09T09:04:53.043Z,33.10
2019-05-09T09:07:23.307Z,33.00
2019-05-09T09:09:53.631Z,32.90
2019-05-09T09:12:31.356Z,32.80
2019-05-09T09:14:55.582Z,32.60
2019-05-09T09:17:27.871Z,32.40
2019-05-09T09:19:58.205Z,32.30
2019-05-09T09:22:29.071Z,32.20
2019-05-09T09:24:59.276Z,32.10
2019-05-09T09:27:30.583Z,31.90
2019-05-09T09:30:16.457Z,31.60
2019-05-09T09:32:32.436Z,31.30
2019-05-09T09:35:02.866Z,31.10
2019-05-09T09:37:48.172Z,30.90
2019-05-09T09:40:08.529Z,30.70
2019-05-09T09:42:39.723Z,30.40
2019-05-09T09:45:10.435Z,30.10
2019-05-09T09:47:40.817Z,29.60
2019-05-09T09:50:12.955Z,29.00
2019-05-09T09:52:43.532Z,28.50
2019-05-09T09:55:13.849Z,28.10
2019-05-09T09:57:44.645Z,27.70
2019-05-09T10:00:18.121Z,27.50
2019-05-09T10:02:48.373Z,27.30
2019-05-09T10:05:18.762Z,27.30
2019-05-09T10:07:49.132Z,27.20
2019-05-09T10:10:22.003Z,27.10
2019-05-09T10:12:52.224Z,26.90
2019-05-09T10:15:27.936Z,26.80
2019-05-09T10:17:58.826Z,26.70
2019-05-09T10:20:30.655Z,26.60
2019-05-09T10:23:11.018Z,26.50
2019-05-09T10:25:32.736Z,26.40
2019-05-09T10:28:02.870Z,26.30
2019-05-09T10:30:38.048Z,26.20
2019-05-09T10:33:09.146Z,26.10
2019-05-09T10:36:38.410Z,26.10
2019-05-09T10:39:08.367Z,26.00
2019-05-09T10:41:38.843Z,26.00
2019-05-09T10:44:10.456Z,25.90
2019-05-09T10:46:52.591Z,26.00
2019-05-09T10:49:13.758Z,25.90
2019-05-09T10:51:44.071Z,25.80
2019-05-09T10:54:14.476Z,25.80
2019-05-09T10:56:44.717Z,25.90
2019-05-09T10:59:15.077Z,25.90
2019-05-09T11:01:45.483Z,25.80
2019-05-09T11:04:17.875Z,25.90
2019-05-09T11:06:47.600Z,25.90
2019-05-09T11:09:30.188Z,25.90
2019-05-09T11:12:02.535Z,26.00
2019-05-09T11:14:37.543Z,26.10
2019-05-09T11:17:17.615Z,26.10
2019-05-09T11:19:41.730Z,26.10
2019-05-09T11:22:14.269Z,26.10
2019-05-09T11:24:50.985Z,26.20
2019-05-09T11:29:53.116Z,26.30
2019-05-09T11:35:17.620Z,26.30
2019-05-09T11:37:50.207Z,26.40
2019-05-09T11:40:22.710Z,26.40
2019-05-09T11:42:55.708Z,26.40
2019-05-09T11:45:28.139Z,26.40
2019-05-09T11:48:03.129Z,26.40
2019-05-09T11:50:38.828Z,26.40
2019-05-09T11:53:14.209Z,26.40
2019-05-09T11:55:48.160Z,26.40
2019-05-09T11:58:22.522Z,26.50
2019-05-09T12:00:54.662Z,26.50
2019-05-09T12:03:26.158Z,26.50
2019-05-09T12:05:58.620Z,26.40
2019-05-09T12:08:29.920Z,26.50
2019-05-09T12:13:32.705Z,26.40
2019-05-09T12:16:02.979Z,26.40
2019-05-09T12:18:33.394Z,26.40
2019-05-09T12:21:03.647Z,26.40
2019-05-09T12:23:33.762Z,26.40
2019-05-09T12:26:04.201Z,26.40
2019-05-09T12:28:34.651Z,26.40
2019-05-09T12:31:07.309Z,26.40
2019-05-09T12:33:36.914Z,26.40
2019-05-09T12:36:09.233Z,26.40
2019-05-09T12:38:39.399Z,26.40
2019-05-09T12:41:09.695Z,26.40
2019-05-09T12:43:40.051Z,26.40
2019-05-09T12:46:10.359Z,26.30
2019-05-09T12:48:40.632Z,26.30
2019-05-09T12:51:10.961Z,26.30
2019-05-09T12:53:41.386Z,26.30
2019-05-09T12:56:11.579Z,26.30
2019-05-09T12:58:41.980Z,26.30
2019-05-09T13:01:12.727Z,26.30
2019-05-09T13:03:43.059Z,26.40
2019-05-09T13:06:13.470Z,26.40
2019-05-09T13:08:44.228Z,26.40
2019-05-09T13:11:14.469Z,26.40
2019-05-09T13:13:44.706Z,26.50
2019-05-09T13:16:17.708Z,26.50
2019-05-09T13:18:49.097Z,26.50
2019-05-09T13:21:19.397Z,26.50
2019-05-09T13:23:52.231Z,26.50
2019-05-09T13:26:21.389Z,26.50
2019-05-09T13:28:51.792Z,26.40
2019-05-09T13:31:22.193Z,26.40
2019-05-09T13:33:52.478Z,26.40
2019-05-09T13:36:22.898Z,26.40
2019-05-09T13:38:58.043Z,26.40
2019-05-09T13:41:25.459Z,26.40
2019-05-09T13:43:59.242Z,26.30
2019-05-09T13:46:28.242Z,26.30
2019-05-09T13:49:10.985Z,26.30
2019-05-09T13:51:30.604Z,26.30
2019-05-09T13:54:00.918Z,26.30
2019-05-09T13:56:31.144Z,26.30
2019-05-09T13:59:01.814Z,26.40
2019-05-09T14:01:32.060Z,26.30
2019-05-09T14:04:02.737Z,26.40
2019-05-09T14:06:32.887Z,26.40
2019-05-09T14:09:03.047Z,26.30
2019-05-09T14:11:33.314Z,26.30
2019-05-09T14:14:03.629Z,26.30
2019-05-09T14:16:34.176Z,26.30
2019-05-09T14:19:26.145Z,26.30
2019-05-09T14:21:36.340Z,26.30
2019-05-09T14:24:14.184Z,26.30
2019-05-09T14:26:38.438Z,26.30
2019-05-09T14:29:12.603Z,26.30
2019-05-09T14:31:40.360Z,26.40
2019-05-09T14:34:10.917Z,26.40
2019-05-09T14:36:45.448Z,26.40
2019-05-09T14:39:12.913Z,26.40
2019-05-09T14:41:45.186Z,26.40
2019-05-09T14:44:14.696Z,26.40
2019-05-09T14:46:47.962Z,26.40
2019-05-09T14:49:17.620Z,26.40
2019-05-09T14:51:49.996Z,26.40
2019-05-09T14:54:20.164Z,26.40
2019-05-09T14:56:50.410Z,26.40
2019-05-09T14:59:20.681Z,26.40
2019-05-09T15:01:50.867Z,26.40
2019-05-09T15:04:21.556Z,26.40
2019-05-09T15:06:51.599Z,26.50
2019-05-09T15:09:21.935Z,26.50
2019-05-09T15:11:52.198Z,26.50
2019-05-09T15:14:22.476Z,26.50
2019-05-09T15:16:52.762Z,26.50
2019-05-09T15:19:23.106Z,26.50
2019-05-09T15:21:56.698Z,26.50
2019-05-09T15:24:25.038Z,26.50
2019-05-09T15:26:55.317Z,26.50
2019-05-09T15:29:28.780Z,26.50
2019-05-09T15:32:04.650Z,26.50
2019-05-09T15:34:29.475Z,26.50
2019-05-09T15:36:59.954Z,26.40
2019-05-09T15:39:30.346Z,26.40
2019-05-09T15:42:00.592Z,26.40
2019-05-09T15:44:30.966Z,26.40
2019-05-09T15:47:02.564Z,26.40
2019-05-09T15:49:33.076Z,26.40
2019-05-09T15:52:03.329Z,26.40
2019-05-09T15:54:33.646Z,26.40
2019-05-09T15:57:04.015Z,26.40
2019-05-09T15:59:34.200Z,26.40
2019-05-09T16:02:04.715Z,26.40
2019-05-09T16:04:35.454Z,26.40
2019-05-09T16:07:05.716Z,26.40
2019-05-09T16:09:37.814Z,26.40
2019-05-09T16:12:07.923Z,26.40
2019-05-09T16:14:38.294Z,26.40
2019-05-09T16:17:08.691Z,26.40
2019-05-09T16:19:39.113Z,26.40
2019-05-09T16:22:09.493Z,26.40
2019-05-09T16:24:39.671Z,26.40
2019-05-09T16:27:10.175Z,26.40
2019-05-09T16:29:40.347Z,26.40
2019-05-09T16:32:11.039Z,26.40
2019-05-09T16:34:41.066Z,26.40
2019-05-09T16:37:11.584Z,26.40
2019-05-09T16:39:42.115Z,26.40
2019-05-09T16:42:12.261Z,26.40
2019-05-09T16:44:42.663Z,26.40
2019-05-09T16:47:12.989Z,26.30
2019-05-09T16:49:43.153Z,26.30
2019-05-09T16:52:13.877Z,26.30
2019-05-09T16:54:49.796Z,26.30
2019-05-09T16:57:18.220Z,26.30
2019-05-09T16:59:48.787Z,26.30
2019-05-09T17:02:24.820Z,26.30
2019-05-09T17:04:50.799Z,26.30
2019-05-09T17:07:21.193Z,26.30
2019-05-09T17:09:51.485Z,26.30
2019-05-09T17:12:21.547Z,26.30
2019-05-09T17:14:51.768Z,26.30
2019-05-09T17:17:22.183Z,26.30
2019-05-09T17:19:52.252Z,26.30
2019-05-09T17:22:23.853Z,26.30
2019-05-09T17:24:54.366Z,26.30
2019-05-09T17:27:24.842Z,26.30
2019-05-09T17:29:55.062Z,26.30
2019-05-09T17:32:25.303Z,26.30
2019-05-09T17:34:58.139Z,26.40
2019-05-09T17:37:28.704Z,26.40
2019-05-09T17:39:59.052Z,26.40
2019-05-09T17:42:29.699Z,26.30
2019-05-09T17:44:59.987Z,26.30
2019-05-09T17:47:30.427Z,26.30
2019-05-09T17:50:00.812Z,26.20
2019-05-09T17:52:31.130Z,26.10
2019-05-09T17:55:01.263Z,26.10
2019-05-09T17:57:31.645Z,26.10
2019-05-09T18:00:01.981Z,26.10
2019-05-09T18:02:32.246Z,26.10
2019-05-09T18:05:02.370Z,26.20
2019-05-09T18:07:33.059Z,26.20
2019-05-09T18:10:03.494Z,26.20
2019-05-09T18:12:33.848Z,26.20
2019-05-09T18:15:04.477Z,26.20
2019-05-09T18:17:34.907Z,26.20
2019-05-09T18:20:08.042Z,26.30
2019-05-09T18:22:38.896Z,26.30
2019-05-09T18:25:09.781Z,26.30
2019-05-09T18:27:39.966Z,26.30
2019-05-09T18:30:11.029Z,26.30
2019-05-09T18:32:42.749Z,26.30
2019-05-09T18:35:14.585Z,26.20
2019-05-09T18:37:44.592Z,26.20
2019-05-09T18:40:17.831Z,26.20
2019-05-09T18:42:47.631Z,26.20
2019-05-09T18:45:18.661Z,26.20
2019-05-09T18:47:49.110Z,26.20
2019-05-09T18:50:19.697Z,26.20
2019-05-09T18:52:49.950Z,26.20
2019-05-09T18:55:20.357Z,26.20
2019-05-09T18:57:51.123Z,26.10
2019-05-09T19:00:22.326Z,26.20
2019-05-09T19:02:52.637Z,26.10
2019-05-09T19:05:23.277Z,26.20
2019-05-09T19:07:53.427Z,26.20
2019-05-09T19:10:24.116Z,26.20
2019-05-09T19:12:54.412Z,26.20
2019-05-09T19:15:26.094Z,26.20
2019-05-09T19:17:57.734Z,26.20
2019-05-09T19:20:29.608Z,26.20
2019-05-09T19:22:59.906Z,26.20
2019-05-09T19:25:30.125Z,26.20
2019-05-09T19:28:00.439Z,26.30
2019-05-09T19:30:30.582Z,26.20
2019-05-09T19:33:01.004Z,26.20
2019-05-09T19:35:31.161Z,26.20
2019-05-09T19:38:01.638Z,26.20
2019-05-09T19:40:31.703Z,26.10
2019-05-09T19:43:02.098Z,26.20
2019-05-09T19:45:32.495Z,26.20
2019-05-09T19:48:02.914Z,26.20
2019-05-09T19:50:33.178Z,26.20
2019-05-09T19:53:03.502Z,26.30
2019-05-09T19:55:33.795Z,26.30
2019-05-09T19:58:04.119Z,26.30
2019-05-09T20:00:34.513Z,26.30
2019-05-09T20:03:04.831Z,26.30
2019-05-09T20:05:34.997Z,26.30
2019-05-09T20:08:05.431Z,26.30
2019-05-09T20:10:37.214Z,26.30
2019-05-09T20:13:08.920Z,26.30
2019-05-09T20:15:39.276Z,26.30
2019-05-09T20:18:09.541Z,26.30
2019-05-09T20:20:39.941Z,26.30
2019-05-09T20:23:10.236Z,26.30
2019-05-09T20:25:40.504Z,26.30
2019-05-09T20:28:10.836Z,26.30
2019-05-09T20:30:41.410Z,26.30
2019-05-09T20:33:11.848Z,26.30
2019-05-09T20:35:42.233Z,26.40
2019-05-09T20:38:12.638Z,26.30
2019-05-09T20:40:43.264Z,26.40
2019-05-09T20:43:13.737Z,26.30
2019-05-09T20:45:44.587Z,26.30
2019-05-09T20:48:15.216Z,26.30
2019-05-09T20:50:45.768Z,26.30
2019-05-09T20:53:16.302Z,26.30
2019-05-09T20:55:46.823Z,26.30
2019-05-09T20:58:17.274Z,26.40
2019-05-09T21:00:47.688Z,26.40
2019-05-09T21:03:18.088Z,26.30
2019-05-09T21:05:48.641Z,26.40
2019-05-09T21:08:19.140Z,26.40
2019-05-09T21:10:49.714Z,26.40
2019-05-09T21:13:20.211Z,26.40
2019-05-09T21:15:50.637Z,26.40
2019-05-09T21:18:21.075Z,26.40
2019-05-09T21:20:51.848Z,26.40
2019-05-09T21:23:24.680Z,26.40
2019-05-09T21:25:53.955Z,26.40
2019-05-09T21:28:24.411Z,26.30
2019-05-09T21:30:54.854Z,26.40
2019-05-09T21:33:25.253Z,26.40
2019-05-09T21:35:55.611Z,26.40
2019-05-09T21:38:25.939Z,26.40
2019-05-09T21:40:56.172Z,26.40
2019-05-09T21:43:26.366Z,26.40
2019-05-09T21:45:56.886Z,26.40
2019-05-09T21:48:26.984Z,26.40
2019-05-09T21:50:57.380Z,26.40
2019-05-09T21:53:39.873Z,26.40
2019-05-09T21:55:59.488Z,26.40
2019-05-09T21:58:29.707Z,26.40
2019-05-09T22:01:01.480Z,26.40
2019-05-09T22:03:31.905Z,26.40
2019-05-09T22:06:02.137Z,26.40
2019-05-09T22:08:32.363Z,26.40
2019-05-09T22:11:03.112Z,26.40
2019-05-09T22:13:33.420Z,26.40
2019-05-09T22:16:03.768Z,26.40
2019-05-09T22:18:34.076Z,26.40
2019-05-09T22:21:04.408Z,26.40
2019-05-09T22:23:34.800Z,26.30
2019-05-09T22:26:05.062Z,26.30
2019-05-09T22:28:35.291Z,26.30
2019-05-09T22:31:05.638Z,26.30
2019-05-09T22:33:35.728Z,26.30
2019-05-09T22:36:06.261Z,26.30
2019-05-09T22:38:36.558Z,26.30
2019-05-09T22:41:06.839Z,26.30
2019-05-09T22:43:37.149Z,26.30
2019-05-09T22:46:07.450Z,26.30
2019-05-09T22:48:37.909Z,26.30
2019-05-09T22:51:09.267Z,26.30
2019-05-09T22:53:40.214Z,26.30
2019-05-09T22:56:10.678Z,26.30
2019-05-09T22:58:41.248Z,26.30
2019-05-09T23:01:11.683Z,26.30
2019-05-09T23:03:41.892Z,26.30
2019-05-09T23:06:12.342Z,26.30
2019-05-09T23:08:42.736Z,26.40
2019-05-09T23:11:12.944Z,26.40
2019-05-09T23:13:44.656Z,26.40
2019-05-09T23:16:14.963Z,26.40
2019-05-09T23:18:45.164Z,26.40
2019-05-09T23:21:15.638Z,26.40
2019-05-09T23:23:47.050Z,26.40
2019-05-09T23:26:18.547Z,26.40
2019-05-09T23:28:48.880Z,26.40
2019-05-09T23:31:20.592Z,26.40
2019-05-09T23:33:50.887Z,26.50
2019-05-09T23:36:21.133Z,26.50
2019-05-09T23:38:52.713Z,26.50
2019-05-09T23:41:22.979Z,26.50
2019-05-09T23:43:53.504Z,26.50
2019-05-09T23:46:24.273Z,26.60
2019-05-09T23:48:55.094Z,26.60
2019-05-09T23:51:26.724Z,26.60
2019-05-09T23:53:56.730Z,26.60
2019-05-09T23:56:28.208Z,26.60
2019-05-09T23:59:00.002Z,26.60
